Time;durP1;ratioP1;P1;durP2;ratioP2;P2;SDS_P1;SDS_P2;PMS_P1;PMS_P2;Temp;Humidity;BMP_temperature;BMP_pressure;BME280_temperature;BME280_humidity;BME280_pressure;Samples;Min_cycle;Max_cycle;Signal;HPM_P1;HPM_P2
2022/03/31 00:01:03;;;;;;;44.30;23.30;;;;;;;9.18;55.40;99752.60;106997;1250;60479;-67
2022/03/31 00:03:33;;;;;;;36.30;22.50;;;;;;;9.16;55.43;99747.06;107072;1250;73968;-65
2022/03/31 00:06:02;;;;;;;35.70;22.60;;;;;;;9.16;55.61;99742.21;107055;1250;72445;-65
2022/03/31 00:08:31;;;;;;;36.20;21.80;;;;;;;9.16;55.37;99746.55;107073;1250;70854;-65
2022/03/31 00:11:00;;;;;;;40.30;22.80;;;;;;;9.20;55.43;99742.91;107002;1250;74668;-67
2022/03/31 00:13:30;;;;;;;35.70;22.00;;;;;;;9.23;55.03;99739.68;107086;1250;59291;-66
2022/03/31 00:15:59;;;;;;;32.90;21.60;;;;;;;9.24;53.75;99736.81;107099;1250;61703;-66
2022/03/31 00:18:31;;;;;;;33.90;22.00;;;;;;;9.23;52.77;99733.42;107183;1253;72512;-65
2022/03/31 00:21:00;;;;;;;34.30;21.90;;;;;;;9.20;53.63;99729.05;107230;1250;73215;-65
2022/03/31 00:23:29;;;;;;;35.60;21.40;;;;;;;9.15;55.97;99725.98;107263;1250;72077;-65
2022/03/31 00:25:59;;;;;;;34.10;21.80;;;;;;;9.15;54.73;99730.61;107170;1250;74263;-67
2022/03/31 00:28:28;;;;;;;33.30;21.70;;;;;;;9.16;54.30;99728.99;107223;1250;60321;-68
2022/03/31 00:30:57;;;;;;;35.30;22.00;;;;;;;9.16;55.67;99722.92;107099;1250;61641;-66
2022/03/31 00:33:27;;;;;;;36.00;20.70;;;;;;;9.13;55.88;99726.13;106889;1251;73765;-67
2022/03/31 00:35:56;;;;;;;38.30;21.20;;;;;;;9.13;56.30;99728.39;107099;1250;71101;-67
2022/03/31 00:38:25;;;;;;;32.30;19.70;;;;;;;9.14;56.02;99734.58;107203;1250;71496;-66
2022/03/31 00:40:54;;;;;;;34.40;21.00;;;;;;;9.14;56.42;99726.73;107204;1253;71993;-67
2022/03/31 00:43:23;;;;;;;34.70;21.10;;;;;;;9.12;56.45;99724.67;107269;1250;58965;-68
2022/03/31 00:45:56;;;;;;;38.30;21.90;;;;;;;9.10;56.46;99724.27;107333;1250;59691;-68
2022/03/31 00:48:25;;;;;;;36.80;21.60;;;;;;;9.10;55.76;99722.39;107296;1250;73527;-65
2022/03/31 00:50:54;;;;;;;33.50;20.40;;;;;;;9.07;54.64;99717.41;107177;1252;71540;-65
2022/03/31 00:53:23;;;;;;;36.90;21.10;;;;;;;9.03;54.82;99716.34;107240;1250;70452;-67
2022/03/31 00:56:00;;;;;;;37.80;22.10;;;;;;;8.98;56.68;99720.23;107165;1251;73421;-68
2022/03/31 00:58:31;;;;;;;36.50;20.70;;;;;;;8.93;55.51;99715.55;107271;1250;59127;-67
2022/03/31 01:01:01;;;;;;;33.60;20.20;;;;;;;8.90;55.85;99713.23;107458;1250;58773;-66
2022/03/31 01:03:30;;;;;;;34.60;21.10;;;;;;;8.85;55.47;99718.48;107551;1251;74043;-67
2022/03/31 01:05:59;;;;;;;32.20;20.30;;;;;;;8.80;55.34;99723.07;107271;1252;71988;-67
2022/03/31 01:08:28;;;;;;;34.50;21.10;;;;;;;8.73;55.46;99720.13;107296;1250;70008;-65
2022/03/31 01:10:57;;;;;;;32.70;21.20;;;;;;;8.68;56.55;99719.15;107198;1251;72566;-67
2022/03/31 01:13:26;;;;;;;37.00;21.40;;;;;;;8.62;58.64;99716.55;107259;1250;58697;-67
2022/03/31 01:15:55;;;;;;;33.60;20.80;;;;;;;8.57;58.95;99717.60;107149;1250;60494;-67
2022/03/31 01:18:25;;;;;;;33.90;20.70;;;;;;;8.54;58.55;99718.38;107209;1250;73229;-67
2022/03/31 01:20:54;;;;;;;35.40;21.80;;;;;;;8.52;59.02;99713.55;107200;1250;73075;-67
2022/03/31 01:23:24;;;;;;;31.10;20.10;;;;;;;8.50;58.62;99705.65;107235;1250;71298;-71
2022/03/31 01:25:53;;;;;;;32.50;21.20;;;;;;;8.46;59.81;99696.96;107295;1251;74382;-69
2022/03/31 01:28:22;;;;;;;36.20;21.00;;;;;;;8.41;59.66;99695.80;107197;1250;61348;-66
2022/03/31 01:30:52;;;;;;;32.90;20.50;;;;;;;8.34;59.86;99692.33;107047;1251;61910;-69
2022/03/31 01:33:21;;;;;;;36.40;21.20;;;;;;;8.34;59.77;99692.16;107232;1250;73658;-68
2022/03/31 01:35:50;;;;;;;36.00;22.00;;;;;;;8.32;59.80;99698.06;107485;1250;70940;-67
2022/03/31 01:38:19;;;;;;;36.50;21.20;;;;;;;8.29;60.01;99695.01;107514;1250;70317;-66
2022/03/31 01:40:48;;;;;;;33.30;21.20;;;;;;;8.25;59.45;99695.70;107621;1250;73623;-66
2022/03/31 01:43:19;;;;;;;34.00;20.70;;;;;;;8.17;57.84;99694.73;107667;1250;59900;-66
2022/03/31 01:45:49;;;;;;;33.10;20.40;;;;;;;8.04;57.96;99697.30;107643;1250;59238;-66
2022/03/31 01:48:18;;;;;;;33.60;20.70;;;;;;;7.88;57.76;99689.89;107504;1250;73227;-66
2022/03/31 01:50:48;;;;;;;33.40;22.00;;;;;;;7.76;57.24;99692.90;107198;1252;70156;-67
2022/03/31 01:53:21;;;;;;;34.00;20.40;;;;;;;7.63;57.81;99691.05;107237;1250;70521;-65
2022/03/31 01:55:50;;;;;;;30.40;19.30;;;;;;;7.58;61.32;99694.45;107184;1250;75312;-65
2022/03/31 01:58:18;;;;;;;38.20;21.10;;;;;;;7.57;62.02;99693.34;107150;1251;61789;-64
2022/03/31 02:00:47;;;;;;;33.30;21.40;;;;;;;7.56;61.43;99694.05;107168;1248;62070;-63
2022/03/31 02:03:18;;;;;;;34.20;20.20;;;;;;;7.53;59.39;99692.95;107197;1250;73315;-66
2022/03/31 02:05:47;;;;;;;38.50;20.70;;;;;;;7.39;60.12;99686.51;107211;1253;70766;-65
2022/03/31 02:08:17;;;;;;;33.50;19.80;;;;;;;7.26;61.13;99685.93;107215;1250;69138;-64
2022/03/31 02:10:46;;;;;;;33.30;20.90;;;;;;;7.16;62.45;99695.17;107159;1252;72033;-66
2022/03/31 02:13:15;;;;;;;36.10;20.20;;;;;;;7.06;59.75;99702.52;107109;1250;59267;-64
2022/03/31 02:15:44;;;;;;;35.30;21.40;;;;;;;6.96;60.62;99707.02;107142;1250;61640;-65
2022/03/31 02:18:13;;;;;;;35.30;19.90;;;;;;;6.86;60.71;99709.29;107081;1250;74503;-67
2022/03/31 02:20:42;;;;;;;36.10;21.10;;;;;;;6.77;59.52;99709.45;107313;1250;73030;-67
2022/03/31 02:23:11;;;;;;;32.80;21.00;;;;;;;6.64;61.39;99706.05;107268;1250;72032;-71
2022/03/31 02:25:40;;;;;;;36.30;20.30;;;;;;;6.54;61.06;99704.51;107308;1250;74907;-66
2022/03/31 02:28:12;;;;;;;34.60;20.70;;;;;;;6.45;60.88;99702.25;107591;1250;62758;-68
2022/03/31 02:30:41;;;;;;;36.60;21.10;;;;;;;6.35;63.26;99697.95;107374;1250;60559;-66
2022/03/31 02:33:10;;;;;;;34.50;21.50;;;;;;;6.29;62.96;99700.39;107216;1250;71166;-66
2022/03/31 02:35:40;;;;;;;31.40;19.80;;;;;;;6.26;61.84;99704.98;107138;1252;70338;-68
2022/03/31 02:38:09;;;;;;;34.70;20.60;;;;;;;6.21;63.21;99710.14;107190;1250;70563;-68
2022/03/31 02:40:38;;;;;;;36.20;20.70;;;;;;;6.25;66.30;99715.73;107214;1250;72503;-70
2022/03/31 02:43:08;;;;;;;35.20;21.00;;;;;;;6.27;64.18;99717.48;107031;1253;60060;-69
2022/03/31 02:45:37;;;;;;;36.90;21.40;;;;;;;6.26;62.58;99714.96;107097;1250;61334;-68
2022/03/31 02:48:06;;;;;;;36.80;21.80;;;;;;;6.22;61.95;99719.77;107346;1253;74380;-68
2022/03/31 02:50:36;;;;;;;38.80;21.40;;;;;;;6.14;63.15;99720.48;107523;1250;72831;-68
2022/03/31 02:55:53;;;;;;;44.10;22.30;;;;;;;6.16;67.27;99724.20;107311;1250;74936;-68
2022/03/31 02:58:22;;;;;;;38.60;21.30;;;;;;;6.20;67.37;99714.17;107361;1250;62226;-67
2022/03/31 03:00:51;;;;;;;32.50;20.50;;;;;;;6.22;66.59;99709.20;107268;1250;60590;-68
2022/03/31 03:03:20;;;;;;;35.60;21.40;;;;;;;6.18;65.79;99695.85;107310;1250;69906;-71
2022/03/31 03:05:49;;;;;;;34.20;20.00;;;;;;;6.24;65.56;99702.34;107273;1253;72535;-72
2022/03/31 03:08:19;;;;;;;37.60;20.40;;;;;;;6.21;64.43;99706.20;107165;1253;71573;-64
2022/03/31 03:10:48;;;;;;;39.40;21.00;;;;;;;6.12;62.95;99706.80;106973;1253;72420;-68
2022/03/31 03:13:17;;;;;;;33.00;20.50;;;;;;;5.98;65.57;99702.22;106991;1253;59037;-66
2022/03/31 03:15:48;;;;;;;38.20;21.90;;;;;;;5.92;66.70;99701.27;107113;1253;60063;-68
2022/03/31 03:18:18;;;;;;;34.00;20.60;;;;;;;5.91;66.26;99699.09;107059;1253;74078;-67
2022/03/31 03:20:47;;;;;;;34.00;20.90;;;;;;;5.91;66.37;99696.34;107177;1253;72228;-68
2022/03/31 03:23:16;;;;;;;42.90;23.40;;;;;;;5.92;66.19;99698.88;107250;1253;70529;-67
2022/03/31 03:25:45;;;;;;;48.10;26.70;;;;;;;5.95;66.24;99699.52;107179;1253;71798;-70
2022/03/31 03:28:14;;;;;;;42.00;23.70;;;;;;;5.98;65.56;99701.05;107320;1253;59144;-69
2022/03/31 03:30:43;;;;;;;39.40;22.60;;;;;;;6.01;65.81;99708.41;107114;1253;59151;-69
2022/03/31 03:33:12;;;;;;;37.80;21.50;;;;;;;6.01;65.62;99710.68;107218;1250;70891;-71
2022/03/31 03:35:41;;;;;;;39.20;22.30;;;;;;;6.04;66.63;99708.94;107477;1250;70518;-68
2022/03/31 03:38:12;;;;;;;39.70;21.10;;;;;;;6.06;66.09;99710.85;107119;1252;70611;-70
2022/03/31 03:40:43;;;;;;;34.80;21.00;;;;;;;6.07;65.61;99703.70;107057;1251;74315;-67
2022/03/31 03:43:12;;;;;;;36.80;22.70;;;;;;;6.08;66.30;99704.67;107185;1250;60845;-67
2022/03/31 03:45:41;;;;;;;37.20;23.10;;;;;;;6.12;66.15;99708.38;107077;1253;61141;-66
2022/03/31 03:48:11;;;;;;;41.00;24.10;;;;;;;6.16;66.08;99701.33;107108;1250;74663;-66
2022/03/31 03:50:40;;;;;;;37.30;22.00;;;;;;;6.19;64.56;99695.95;107061;1253;71164;-66
2022/03/31 03:53:09;;;;;;;39.90;23.00;;;;;;;6.15;64.96;99692.74;107129;1252;68668;-68
2022/03/31 03:55:39;;;;;;;37.80;22.30;;;;;;;6.12;66.35;99693.16;107327;1250;73882;-68
2022/03/31 03:58:08;;;;;;;43.30;22.20;;;;;;;6.12;66.22;99688.12;107398;1253;60776;-70
2022/03/31 04:00:38;;;;;;;37.60;21.00;;;;;;;6.15;66.46;99688.48;107150;1253;62181;-69
2022/03/31 04:03:08;;;;;;;36.20;21.90;;;;;;;6.19;66.61;99688.73;107345;1253;72319;-68
2022/03/31 04:05:38;;;;;;;37.10;21.80;;;;;;;6.15;66.70;99682.58;107285;1253;72070;-70
2022/03/31 04:08:07;;;;;;;38.90;23.60;;;;;;;6.21;67.03;99686.85;107066;1253;67916;-71
2022/03/31 04:10:37;;;;;;;42.60;24.20;;;;;;;6.22;66.81;99681.05;107118;1252;73887;-69
2022/03/31 04:13:06;;;;;;;42.20;24.40;;;;;;;6.21;66.57;99683.15;107109;1253;59683;-68
2022/03/31 04:15:35;;;;;;;48.10;25.30;;;;;;;6.20;66.53;99686.35;107155;1253;59105;-67
2022/03/31 04:21:29;;;;;;;42.90;24.90;;;;;;;6.29;66.22;99690.56;107104;1253;71214;-73
2022/03/31 04:23:58;;;;;;;47.60;25.90;;;;;;;6.34;65.89;99693.11;107024;1253;69665;-71
2022/03/31 04:26:28;;;;;;;46.90;27.70;;;;;;;6.40;65.96;99696.17;107225;1251;72334;-70
2022/03/31 04:28:57;;;;;;;49.80;27.80;;;;;;;6.45;66.04;99692.02;107300;1250;60412;-70
2022/03/31 04:31:26;;;;;;;50.20;30.00;;;;;;;6.51;65.91;99688.69;107510;1251;60863;-74
2022/03/31 04:33:56;;;;;;;46.80;26.80;;;;;;;6.57;66.15;99685.83;107266;1250;72836;-72
2022/03/31 04:36:25;;;;;;;44.10;26.60;;;;;;;6.61;66.14;99687.20;107576;1250;71069;-73
2022/03/31 04:38:54;;;;;;;43.70;24.00;;;;;;;6.66;65.69;99688.48;107799;1251;69306;-75
2022/03/31 04:41:23;;;;;;;45.60;24.40;;;;;;;6.70;64.29;99693.68;107618;1250;71995;-71
2022/03/31 04:43:53;;;;;;;45.60;24.80;;;;;;;6.73;64.89;99694.02;107468;1252;61393;-72
2022/03/31 04:46:22;;;;;;;43.20;23.90;;;;;;;6.75;65.27;99698.73;107608;1253;60556;-71
2022/03/31 04:48:52;;;;;;;45.10;24.60;;;;;;;6.80;67.31;99701.47;107478;1251;72644;-71
2022/03/31 04:51:21;;;;;;;42.10;23.50;;;;;;;6.88;67.18;99697.04;107221;1250;72079;-72
2022/03/31 04:53:50;;;;;;;41.10;24.90;;;;;;;6.94;67.48;99694.55;107449;1250;68402;-71
2022/03/31 04:56:19;;;;;;;42.00;25.60;;;;;;;6.99;67.72;99693.15;107319;1253;72348;-72
2022/03/31 04:58:48;;;;;;;46.50;25.30;;;;;;;6.99;66.56;99692.10;107309;1250;58975;-71
2022/03/31 05:01:18;;;;;;;45.50;25.50;;;;;;;6.99;66.81;99689.86;107154;1253;60130;-71
2022/03/31 05:03:54;;;;;;;48.60;25.10;;;;;;;7.00;66.99;99689.80;107293;1253;71728;-71
2022/03/31 05:06:23;;;;;;;54.90;28.30;;;;;;;7.03;66.67;99691.92;107352;1250;70691;-68
2022/03/31 05:08:52;;;;;;;59.80;28.20;;;;;;;7.13;67.25;99688.77;107264;1253;69028;-76
2022/03/31 05:11:21;;;;;;;53.00;28.50;;;;;;;7.25;66.25;99688.12;107254;1250;72055;-72
2022/03/31 05:13:50;;;;;;;56.80;30.30;;;;;;;7.38;66.06;99685.74;107282;1251;60066;-73
2022/03/31 05:16:19;;;;;;;58.80;29.40;;;;;;;7.55;66.25;99689.46;107220;1250;59408;-72
2022/03/31 05:18:48;;;;;;;54.00;28.50;;;;;;;7.74;65.76;99695.81;107337;1250;72273;-72
2022/03/31 05:21:17;;;;;;;63.10;30.50;;;;;;;7.86;64.91;99688.28;107263;1251;70979;-72
2022/03/31 05:23:46;;;;;;;55.70;28.00;;;;;;;7.99;64.12;99689.16;107024;1253;67932;-71
2022/03/31 05:26:15;;;;;;;54.10;29.10;;;;;;;8.12;63.49;99695.61;107179;1253;73658;-72
2022/03/31 05:28:44;;;;;;;62.50;29.30;;;;;;;8.26;63.21;99700.83;107280;1250;60858;-72
2022/03/31 05:31:14;;;;;;;59.40;29.60;;;;;;;8.39;62.66;99695.79;107321;1250;61905;-72
2022/03/31 05:33:43;;;;;;;55.60;30.10;;;;;;;8.53;62.25;99686.52;107153;1250;74512;-74
2022/03/31 05:36:12;;;;;;;59.80;32.10;;;;;;;8.68;61.83;99685.95;107141;1250;69948;-72
2022/03/31 05:38:41;;;;;;;61.70;30.80;;;;;;;8.82;61.15;99692.33;107168;1251;71012;-72
2022/03/31 05:41:10;;;;;;;67.00;33.80;;;;;;;8.96;60.72;99693.30;107174;1251;75188;-72
2022/03/31 05:43:39;;;;;;;68.70;34.20;;;;;;;9.09;60.31;99690.84;107390;1250;60123;-72
2022/03/31 05:46:08;;;;;;;74.20;36.50;;;;;;;9.20;59.99;99692.13;107238;1252;59055;-73
2022/03/31 05:48:38;;;;;;;66.30;33.90;;;;;;;9.38;59.63;99691.34;107263;1250;73951;-72
2022/03/31 05:51:07;;;;;;;73.20;36.20;;;;;;;9.56;59.22;99684.11;107005;1252;73680;-72
2022/03/31 05:53:36;;;;;;;74.70;35.10;;;;;;;9.72;58.69;99671.47;107008;1252;67720;-73
2022/03/31 05:56:05;;;;;;;68.00;33.40;;;;;;;9.92;57.96;99674.33;107068;1253;71937;-72
2022/03/31 05:58:36;;;;;;;68.40;34.00;;;;;;;10.11;57.58;99676.46;107085;1251;60429;-71
2022/03/31 06:01:05;;;;;;;61.60;33.80;;;;;;;10.24;56.46;99679.05;107035;1250;61704;-72
2022/03/31 06:03:35;;;;;;;74.70;36.40;;;;;;;10.33;55.92;99675.30;107233;1251;74509;-72
2022/03/31 06:06:04;;;;;;;60.30;31.90;;;;;;;10.43;55.58;99673.91;107006;1251;72624;-72
2022/03/31 06:08:33;;;;;;;62.20;35.70;;;;;;;10.50;55.21;99678.63;107190;1253;70643;-72
2022/03/31 06:11:02;;;;;;;58.10;34.20;;;;;;;10.57;54.99;99677.33;107068;1253;71433;-72
2022/03/31 06:13:31;;;;;;;57.60;34.30;;;;;;;10.70;54.87;99677.73;107269;1253;60763;-74
2022/03/31 06:16:01;;;;;;;60.00;33.60;;;;;;;10.82;54.16;99684.13;107465;1251;61299;-75
2022/03/31 06:18:30;;;;;;;61.10;34.20;;;;;;;10.96;53.86;99688.83;107348;1251;74459;-74
2022/03/31 06:20:59;;;;;;;61.00;32.60;;;;;;;11.09;53.40;99691.98;107468;1250;70681;-74
2022/03/31 06:23:28;;;;;;;58.10;33.10;;;;;;;11.24;53.17;99691.50;107225;1251;68706;-73
2022/03/31 06:25:58;;;;;;;53.80;32.50;;;;;;;11.38;52.50;99680.61;107312;1249;73969;-76
2022/03/31 06:28:29;;;;;;;58.90;33.10;;;;;;;11.51;52.54;99680.80;107176;1251;62728;-73
2022/03/31 06:30:59;;;;;;;54.50;32.40;;;;;;;11.58;51.96;99683.01;107068;1252;61823;-73
2022/03/31 06:33:28;;;;;;;63.40;33.00;;;;;;;11.71;51.63;99687.19;106926;1254;73128;-73
2022/03/31 06:35:57;;;;;;;59.70;33.00;;;;;;;11.85;51.19;99676.43;107222;1250;70463;-74
2022/03/31 06:38:26;;;;;;;62.00;32.40;;;;;;;12.08;50.84;99668.03;107062;1253;69002;-73
2022/03/31 06:41:08;;;;;;;52.50;32.40;;;;;;;12.21;50.06;99661.50;107222;1251;71958;-72
2022/03/31 06:43:39;;;;;;;54.40;31.60;;;;;;;12.39;49.55;99666.66;107023;1253;59036;-75
2022/03/31 06:46:09;;;;;;;54.20;32.50;;;;;;;12.44;49.22;99660.86;106955;1251;59772;-72
2022/03/31 06:48:43;;;;;;;61.50;32.90;;;;;;;12.63;49.56;99660.30;107202;1252;74297;-72
2022/03/31 06:51:13;;;;;;;50.90;30.90;;;;;;;12.80;49.30;99652.65;107229;1250;72711;-72
2022/03/31 06:53:45;;;;;;;50.90;31.60;;;;;;;12.99;49.21;99649.86;107032;1253;71097;-72
2022/03/31 06:56:16;;;;;;;50.80;32.70;;;;;;;13.07;47.68;99649.52;107047;1250;73750;-72
2022/03/31 06:58:45;;;;;;;64.90;33.30;;;;;;;13.14;47.67;99657.30;107080;1251;60809;-74
2022/03/31 07:01:14;;;;;;;53.30;31.30;;;;;;;13.22;47.62;99656.73;107042;1254;59287;-72
2022/03/31 07:03:43;;;;;;;57.00;32.90;;;;;;;13.40;46.62;99656.47;107251;1251;74590;-76
2022/03/31 07:06:12;;;;;;;51.50;31.40;;;;;;;13.44;46.08;99655.25;107190;1251;71271;-73
2022/03/31 07:08:42;;;;;;;56.30;31.20;;;;;;;13.39;45.75;99654.44;107095;1251;69710;-73
2022/03/31 07:11:13;;;;;;;52.10;31.40;;;;;;;13.42;45.91;99659.83;107462;1251;72175;-73
2022/03/31 07:13:43;;;;;;;50.90;30.50;;;;;;;13.39;45.82;99666.56;107316;1253;60544;-72
2022/03/31 07:16:12;;;;;;;57.90;31.70;;;;;;;13.52;45.70;99673.09;107085;1254;59713;-73
2022/03/31 07:18:44;;;;;;;51.20;30.40;;;;;;;13.44;45.71;99679.69;107153;1252;69884;-73
2022/03/31 07:21:13;;;;;;;58.70;33.10;;;;;;;13.65;45.64;99686.17;107434;1253;69551;-73
2022/03/31 07:23:47;;;;;;;49.70;29.80;;;;;;;13.89;45.65;99684.20;107651;1250;68730;-74
2022/03/31 07:26:16;;;;;;;50.20;31.00;;;;;;;14.04;44.42;99677.23;107260;1250;75171;-73
2022/03/31 07:28:46;;;;;;;58.80;32.00;;;;;;;14.33;44.07;99672.82;107339;1251;61277;-74
2022/03/31 07:31:16;;;;;;;50.30;30.60;;;;;;;14.47;43.63;99676.64;107413;1251;60370;-72
2022/03/31 07:33:46;;;;;;;49.80;29.90;;;;;;;14.42;43.41;99678.11;107289;1251;72057;-73
2022/03/31 07:36:17;;;;;;;58.80;30.30;;;;;;;14.47;43.50;99686.65;107306;1251;70303;-72
2022/03/31 07:38:46;;;;;;;53.60;32.00;;;;;;;14.45;43.54;99688.95;107288;1251;70888;-73
2022/03/31 07:41:16;;;;;;;54.40;32.10;;;;;;;14.50;43.57;99694.16;107405;1251;74671;-73
2022/03/31 07:43:45;;;;;;;51.70;32.20;;;;;;;14.91;43.00;99696.94;107191;1251;61120;-72
2022/03/31 07:46:15;;;;;;;52.70;31.50;;;;;;;15.15;42.12;99692.61;107349;1253;60028;-73
2022/03/31 07:48:44;;;;;;;62.40;32.30;;;;;;;15.41;42.11;99683.41;107497;1251;73663;-72
2022/03/31 07:51:13;;;;;;;55.10;31.70;;;;;;;15.75;41.38;99676.77;107294;1252;70960;-73
2022/03/31 07:53:43;;;;;;;57.20;31.90;;;;;;;15.84;40.87;99675.73;107334;1251;69035;-74
2022/03/31 07:56:12;;;;;;;57.60;33.10;;;;;;;15.80;40.25;99671.59;107544;1251;73922;-76
2022/03/31 07:58:41;;;;;;;51.80;31.80;;;;;;;16.06;40.42;99674.67;107448;1252;59562;-75
2022/03/31 08:01:11;;;;;;;51.50;30.80;;;;;;;16.09;39.29;99676.69;107473;1251;60238;-76
2022/03/31 08:03:40;;;;;;;51.60;33.20;;;;;;;16.06;39.06;99679.04;107222;1252;72630;-75
2022/03/31 08:06:10;;;;;;;53.90;31.80;;;;;;;16.38;38.82;99677.75;107507;1251;71459;-74
2022/03/31 08:08:39;;;;;;;53.90;31.30;;;;;;;16.33;38.39;99674.95;107758;1251;70842;-73
2022/03/31 08:11:08;;;;;;;52.30;31.10;;;;;;;16.58;38.04;99666.38;107746;1251;73710;-71
2022/03/31 08:13:38;;;;;;;50.90;31.60;;;;;;;16.79;38.16;99662.37;107802;1251;62138;-75
2022/03/31 08:16:08;;;;;;;54.90;30.60;;;;;;;17.01;37.25;99660.39;107541;1251;60602;-76
2022/03/31 08:18:38;;;;;;;50.30;30.90;;;;;;;17.28;37.32;99656.36;107674;1251;73638;-74
2022/03/31 08:21:07;;;;;;;52.40;29.10;;;;;;;17.41;35.79;99655.67;107398;1251;73266;-73
2022/03/31 08:23:36;;;;;;;45.30;28.30;;;;;;;17.64;36.00;99656.53;107442;1250;70258;-76
2022/03/31 08:26:05;;;;;;;44.40;28.40;;;;;;;17.76;34.47;99653.14;107583;1251;75280;-73
2022/03/31 08:28:36;;;;;;;42.70;29.00;;;;;;;17.93;34.65;99650.44;107527;1251;59537;-74
2022/03/31 08:31:06;;;;;;;44.90;30.00;;;;;;;18.02;34.56;99646.23;107596;1250;60297;-76
2022/03/31 08:33:35;;;;;;;52.60;30.60;;;;;;;18.00;33.70;99644.23;107361;1251;74048;-75
2022/03/31 08:36:04;;;;;;;42.60;28.80;;;;;;;17.76;34.21;99639.91;107243;1253;72314;-75
2022/03/31 08:38:36;;;;;;;;;;;;;;;17.65;34.77;99633.23;107099;1251;70416;-77
2022/03/31 08:41:05;;;;;;;46.80;31.00;;;;;;;17.83;34.56;99631.73;107282;1251;72446;-74
2022/03/31 08:43:37;;;;;;;47.10;29.70;;;;;;;18.06;34.48;99629.00;107041;1253;58942;-74
2022/03/31 08:46:09;;;;;;;54.50;29.50;;;;;;;17.98;33.76;99622.38;107221;1250;58889;-73
2022/03/31 08:48:39;;;;;;;46.90;28.30;;;;;;;18.20;33.76;99625.80;107327;1250;73629;-74
2022/03/31 08:51:09;;;;;;;45.80;27.70;;;;;;;18.25;33.71;99622.38;107420;1251;70901;-73
2022/03/31 08:53:38;;;;;;;47.20;28.10;;;;;;;18.36;32.92;99621.30;107177;1250;69714;-74
2022/03/31 08:56:10;;;;;;;43.80;28.20;;;;;;;18.36;32.93;99613.89;107088;1251;73112;-74
2022/03/31 08:58:42;;;;;;;44.70;27.00;;;;;;;18.18;32.29;99611.27;107325;1251;60507;-75
2022/03/31 09:01:16;;;;;;;45.70;25.50;;;;;;;18.20;32.70;99615.23;107316;1253;61659;-75
2022/03/31 09:03:46;;;;;;;38.60;26.20;;;;;;;18.45;32.29;99615.73;107099;1254;72176;-74
2022/03/31 09:06:35;;;;;;;38.70;25.80;;;;;;;18.58;32.08;99613.82;107205;1251;72648;-70
2022/03/31 09:09:04;;;;;;;44.50;28.60;;;;;;;18.57;31.97;99616.39;107210;1253;70600;-74
2022/03/31 09:11:37;;;;;;;42.90;27.90;;;;;;;18.70;32.48;99610.50;107169;1253;74825;-73
2022/03/31 09:14:32;;;;;;;56.00;30.80;;;;;;;18.60;32.09;99610.02;107337;1250;61948;-72
2022/03/31 09:17:15;;;;;;;48.40;30.80;;;;;;;18.78;32.45;99608.35;107311;1253;59484;-74
2022/03/31 09:19:44;;;;;;;;;;;;;;;18.77;32.24;99609.55;107377;1253;71032;-74
2022/03/31 09:22:13;;;;;;;43.60;27.80;;;;;;;18.81;32.27;99611.90;107359;1250;72278;-73
2022/03/31 09:24:45;;;;;;;51.70;28.80;;;;;;;19.08;32.64;99615.30;107212;1253;69071;-80
2022/03/31 09:27:26;;;;;;;44.60;27.90;;;;;;;19.13;32.03;99602.42;107318;1253;74720;-74
2022/03/31 09:30:07;;;;;;;41.90;27.30;;;;;;;19.29;31.55;99599.11;107216;1251;60504;-76
2022/03/31 09:32:49;;;;;;;44.60;27.70;;;;;;;19.43;31.43;99601.77;107238;1251;60860;-75
2022/03/31 09:35:25;;;;;;;44.50;28.40;;;;;;;19.50;31.58;99592.69;107280;1253;62844;-74
2022/03/31 09:37:55;;;;;;;44.70;28.20;;;;;;;19.60;31.35;99589.93;107327;1250;60903;-73
2022/03/31 09:40:35;;;;;;;43.30;27.40;;;;;;;19.53;30.33;99581.41;107434;1251;71543;-74
2022/03/31 09:43:08;;;;;;;41.20;27.50;;;;;;;19.66;29.85;99580.32;107335;1250;63237;-74
2022/03/31 09:45:39;;;;;;;40.60;26.70;;;;;;;19.72;30.42;99578.59;107021;1253;60548;-74
2022/03/31 09:48:22;;;;;;;41.60;27.30;;;;;;;19.68;29.84;99578.59;107172;1253;58776;-74
2022/03/31 09:50:54;;;;;;;41.30;25.90;;;;;;;19.62;29.58;99579.02;107123;1254;74805;-74
2022/03/31 09:53:27;;;;;;;42.40;25.00;;;;;;;19.84;29.30;99582.76;107321;1251;60554;-73
2022/03/31 09:55:56;;;;;;;;;;;;;;;19.88;28.56;99583.38;107303;1251;59219;-73
2022/03/31 09:58:25;;;;;;;44.70;25.50;;;;;;;19.85;28.63;99581.67;107245;1251;73477;-72
2022/03/31 10:00:55;;;;;;;41.60;26.20;;;;;;;19.60;28.88;99586.30;107119;1253;58449;-73
2022/03/31 10:03:24;;;;;;;34.80;22.30;;;;;;;19.56;28.30;99587.19;107182;1251;61160;-74
2022/03/31 10:05:55;;;;;;;35.20;22.90;;;;;;;19.55;27.59;99580.83;107169;1251;63546;-74
2022/03/31 10:08:26;;;;;;;36.10;23.30;;;;;;;19.60;27.67;99577.34;107368;1251;61735;-76
2022/03/31 10:11:21;;;;;;;39.10;23.10;;;;;;;19.64;27.54;99578.30;107286;1251;70121;-75
2022/03/31 10:14:48;;;;;;;39.30;23.20;;;;;;;19.71;27.82;99581.94;107320;1251;74915;-74
2022/03/31 10:18:10;;;;;;;41.60;23.30;;;;;;;19.52;27.74;99584.39;107321;1251;61017;-73
2022/03/31 10:21:03;;;;;;;37.00;22.50;;;;;;;19.67;27.66;99582.80;107028;1251;63303;-73
2022/03/31 10:26:28;;;;;;;29.40;19.60;;;;;;;19.62;25.33;99574.64;107455;1251;71644;-73
2022/03/31 10:29:00;;;;;;;28.40;18.20;;;;;;;19.70;25.63;99566.98;107553;1251;72180;-74
2022/03/31 10:31:39;;;;;;;30.40;18.10;;;;;;;19.64;25.05;99572.65;107269;1254;63858;-73
2022/03/31 10:34:12;;;;;;;33.60;18.40;;;;;;;19.73;25.05;99570.48;107267;1251;61006;-76
2022/03/31 10:36:49;;;;;;;34.00;19.00;;;;;;;19.73;25.28;99572.49;107333;1251;61164;-74
2022/03/31 10:39:22;;;;;;;26.70;17.50;;;;;;;19.71;24.82;99566.04;107167;1251;72057;-73
2022/03/31 10:42:11;;;;;;;31.60;18.30;;;;;;;19.81;24.96;99562.85;107507;1251;61665;-74
2022/03/31 10:44:40;;;;;;;28.60;16.70;;;;;;;20.05;24.40;99560.80;107451;1254;60060;-73
2022/03/31 10:47:10;;;;;;;32.60;17.60;;;;;;;20.00;24.29;99560.14;107242;1253;62644;-74
2022/03/31 10:49:39;;;;;;;28.20;15.90;;;;;;;19.99;24.70;99561.78;107146;1250;62381;-74
2022/03/31 10:52:19;;;;;;;26.00;16.90;;;;;;;20.10;24.33;99559.73;107362;1253;59212;-75
2022/03/31 10:54:48;;;;;;;23.60;16.00;;;;;;;19.98;23.91;99554.88;107388;1252;63464;-74
2022/03/31 10:57:19;;;;;;;33.40;16.10;;;;;;;20.11;24.05;99546.84;107104;1252;62606;-73
2022/03/31 10:59:49;;;;;;;32.20;16.60;;;;;;;20.17;24.16;99539.67;107486;1251;71631;-74
2022/03/31 11:02:23;;;;;;;30.50;16.80;;;;;;;20.26;24.06;99539.73;107142;1253;63851;-73
2022/03/31 11:04:58;;;;;;;31.60;17.60;;;;;;;20.50;23.64;99538.09;107221;1253;57379;-73
2022/03/31 11:07:28;;;;;;;31.80;17.30;;;;;;;20.57;23.60;99527.17;107470;1253;59484;-78
2022/03/31 11:10:13;;;;;;;33.90;18.50;;;;;;;20.67;23.43;99514.72;107651;1253;63745;-75
2022/03/31 11:12:50;;;;;;;30.80;17.10;;;;;;;20.41;23.45;99512.83;107188;1251;61005;-75
2022/03/31 11:15:24;;;;;;;27.80;16.00;;;;;;;20.49;23.37;99511.08;107407;1251;70790;-76
2022/03/31 11:18:01;;;;;;;35.60;17.00;;;;;;;20.64;23.44;99504.48;107410;1251;73631;-77
2022/03/31 11:20:30;;;;;;;30.40;17.80;;;;;;;20.79;23.39;99499.44;107422;1252;60923;-76
2022/03/31 11:23:04;;;;;;;30.50;17.10;;;;;;;20.89;23.22;99497.55;107370;1253;59065;-73
2022/03/31 11:25:34;;;;;;;31.70;18.40;;;;;;;20.88;23.17;99495.27;107524;1251;73925;-74
2022/03/31 11:28:12;;;;;;;32.40;17.40;;;;;;;20.39;23.57;99496.29;107641;1251;62044;-76
2022/03/31 11:30:48;;;;;;;35.80;17.20;;;;;;;20.57;23.64;99497.48;107548;1251;62041;-76
2022/03/31 11:33:17;;;;;;;34.90;15.70;;;;;;;21.16;23.29;99492.06;107484;1251;73654;-75
2022/03/31 11:35:53;;;;;;;32.60;15.20;;;;;;;21.44;23.29;99484.13;107304;1251;61047;-74
2022/03/31 11:38:22;;;;;;;29.60;14.20;;;;;;;21.20;22.67;99476.64;107043;1253;62504;-76
2022/03/31 11:40:51;;;;;;;23.60;13.30;;;;;;;21.49;22.74;99471.69;107151;1251;74101;-72